Time;durP1;ratioP1;P1;durP2;ratioP2;P2;SDS_P1;SDS_P2;PMS_P1;PMS_P2;Temp;Humidity;BMP_temperature;BMP_pressure;BME280_temperature;BME280_humidity;BME280_pressure;Samples;Min_cycle;Max_cycle;Signal;HPM_P1;HPM_P2
2021/01/20 00:01:50;;;;;;;20.83;13.50;;;;;;;;;;5032865;28;20029;-75
2021/01/20 00:04:16;;;;;;;18.58;12.10;;;;;;;;;;5032981;28;20500;-75
2021/01/20 00:06:42;;;;;;;20.60;12.68;;;;;;;;;;5036814;28;20496;-72
2021/01/20 00:09:08;;;;;;;20.00;13.13;;;;;;;;;;5047249;28;20021;-72
2021/01/20 00:11:35;;;;;;;19.15;12.35;;;;;;;;;;5045298;28;20029;-71
2021/01/20 00:14:01;;;;;;;16.40;12.07;;;;;;;;;;5048026;28;20630;-71
2021/01/20 00:16:27;;;;;;;18.63;12.15;;;;;;;;;;5032575;28;20033;-72
2021/01/20 00:18:53;;;;;;;19.85;13.32;;;;;;;;;;5032569;28;20063;-73
2021/01/20 00:21:19;;;;;;;17.20;11.90;;;;;;;;;;5032508;28;20040;-75
2021/01/20 00:23:45;;;;;;;17.90;12.30;;;;;;;;;;5032415;28;20030;-74
2021/01/20 00:26:11;;;;;;;17.92;11.93;;;;;;;;;;5051249;28;20035;-75
2021/01/20 00:28:38;;;;;;;17.85;12.25;;;;;;;;;;5051030;28;20032;-74
2021/01/20 00:31:04;;;;;;;17.38;11.05;;;;;;;;;;5060416;28;20028;-74
2021/01/20 00:33:30;;;;;;;18.73;12.50;;;;;;;;;;5049918;28;20071;-74
2021/01/20 00:35:56;;;;;;;18.77;12.52;;;;;;;;;;5051034;28;20020;-72
2021/01/20 00:38:22;;;;;;;17.33;12.00;;;;;;;;;;5050530;28;20392;-72
2021/01/20 00:40:48;;;;;;;15.73;11.32;;;;;;;;;;5052374;28;20487;-71
2021/01/20 00:43:14;;;;;;;17.30;12.38;;;;;;;;;;5050874;28;20480;-71
2021/01/20 00:45:40;;;;;;;16.65;12.13;;;;;;;;;;5050927;28;20029;-72
2021/01/20 00:48:10;;;;;;;17.52;12.27;;;;;;;;;;5051980;28;20020;-70
2021/01/20 00:50:36;;;;;;;18.13;11.90;;;;;;;;;;5050852;28;20039;-75
2021/01/20 00:53:03;;;;;;;17.30;11.57;;;;;;;;;;5051930;28;20025;-75
2021/01/20 00:55:29;;;;;;;16.75;11.80;;;;;;;;;;5051856;28;20112;-75
2021/01/20 00:57:55;;;;;;;16.83;11.25;;;;;;;;;;5051920;28;20528;-75
2021/01/20 01:00:21;;;;;;;16.17;11.70;;;;;;;;;;5051682;28;20039;-75
2021/01/20 01:02:49;;;;;;;16.33;11.98;;;;;;;;;;5051720;28;20040;-77
2021/01/20 01:05:15;;;;;;;21.15;13.27;;;;;;;;;;5051796;28;20009;-75
2021/01/20 01:07:41;;;;;;;18.58;12.73;;;;;;;;;;5050423;28;20029;-77
2021/01/20 01:10:07;;;;;;;19.58;13.25;;;;;;;;;;5050198;28;20024;-74
2021/01/20 01:12:33;;;;;;;17.63;12.35;;;;;;;;;;5051467;28;20040;-72
2021/01/20 01:14:59;;;;;;;18.55;13.23;;;;;;;;;;5051288;28;20028;-74
2021/01/20 01:17:25;;;;;;;18.75;13.80;;;;;;;;;;5050230;28;20029;-72
2021/01/20 01:19:51;;;;;;;17.58;12.40;;;;;;;;;;5051507;28;20021;-76
2021/01/20 01:22:17;;;;;;;19.88;13.90;;;;;;;;;;5051475;28;20598;-74
2021/01/20 01:24:43;;;;;;;18.83;12.82;;;;;;;;;;5050194;28;20029;-74
2021/01/20 01:27:09;;;;;;;17.67;12.50;;;;;;;;;;5051693;28;20147;-76
2021/01/20 01:29:36;;;;;;;18.77;12.68;;;;;;;;;;5051230;28;20029;-75
2021/01/20 01:32:02;;;;;;;19.70;12.88;;;;;;;;;;5049927;28;20037;-74
2021/01/20 01:34:28;;;;;;;18.55;12.70;;;;;;;;;;5051457;28;20049;-75
2021/01/20 01:36:54;;;;;;;18.20;12.35;;;;;;;;;;5050135;28;20033;-74
2021/01/20 01:39:20;;;;;;;19.13;13.27;;;;;;;;;;5050860;28;20479;-77
2021/01/20 01:41:46;;;;;;;18.45;12.25;;;;;;;;;;5050197;28;20526;-76
2021/01/20 01:44:12;;;;;;;18.88;12.93;;;;;;;;;;5049775;28;20428;-76
2021/01/20 01:46:38;;;;;;;18.77;12.63;;;;;;;;;;5049684;28;20033;-76
2021/01/20 01:49:05;;;;;;;18.02;12.65;;;;;;;;;;5050067;28;20510;-73
2021/01/20 01:51:31;;;;;;;19.45;13.35;;;;;;;;;;5053016;28;20108;-75
2021/01/20 01:53:57;;;;;;;19.38;12.55;;;;;;;;;;5046869;28;20125;-74
2021/01/20 01:56:26;;;;;;;20.40;12.98;;;;;;;;;;5045248;28;20419;-78
2021/01/20 01:58:52;;;;;;;18.25;12.48;;;;;;;;;;5049601;28;20024;-76
2021/01/20 02:01:19;;;;;;;17.98;12.65;;;;;;;;;;5054422;28;20070;-74
2021/01/20 02:03:48;;;;;;;20.02;13.00;;;;;;;;;;5053693;28;20093;-77
2021/01/20 02:06:14;;;;;;;22.88;12.85;;;;;;;;;;5053629;28;20020;-77
2021/01/20 02:08:41;;;;;;;23.33;12.38;;;;;;;;;;5053860;28;20510;-78
2021/01/20 02:11:13;;;;;;;19.52;12.48;;;;;;;;;;5044808;28;20029;-78
2021/01/20 02:14:09;;;;;;;20.70;12.90;;;;;;;;;;5033842;28;20025;-78
2021/01/20 02:16:38;;;;;;;18.80;12.40;;;;;;;;;;5049096;28;20532;-78
2021/01/20 02:19:09;;;;;;;19.27;12.30;;;;;;;;;;5034765;28;20160;-77
2021/01/20 02:21:35;;;;;;;18.42;12.82;;;;;;;;;;5033623;28;20021;-78
2021/01/20 02:24:09;;;;;;;17.40;11.90;;;;;;;;;;5033264;28;20022;-78
2021/01/20 02:26:38;;;;;;;23.95;13.18;;;;;;;;;;5034709;28;20056;-78
2021/01/20 02:29:09;;;;;;;19.00;12.75;;;;;;;;;;5048072;28;20017;-78
2021/01/20 02:31:35;;;;;;;18.67;12.73;;;;;;;;;;5050121;28;20041;-78
2021/01/20 02:34:04;;;;;;;16.52;12.02;;;;;;;;;;5034367;28;20013;-78
2021/01/20 02:36:30;;;;;;;18.00;12.15;;;;;;;;;;5034643;28;20025;-78
2021/01/20 02:38:57;;;;;;;16.83;11.57;;;;;;;;;;5034467;28;20025;-78
2021/01/20 02:41:24;;;;;;;18.65;12.57;;;;;;;;;;5034613;28;20030;-78
2021/01/20 02:43:50;;;;;;;18.67;12.43;;;;;;;;;;5032951;28;20501;-78
2021/01/20 02:46:16;;;;;;;19.13;12.70;;;;;;;;;;5034884;28;20029;-78
2021/01/20 02:48:42;;;;;;;26.30;12.00;;;;;;;;;;5049612;28;20384;-78
2021/01/20 02:51:09;;;;;;;17.90;11.60;;;;;;;;;;5049773;28;20052;-78
2021/01/20 02:53:35;;;;;;;18.92;13.10;;;;;;;;;;5034380;28;20065;-78
2021/01/20 02:56:03;;;;;;;16.35;11.32;;;;;;;;;;5034369;28;20018;-78
2021/01/20 02:58:29;;;;;;;18.92;12.23;;;;;;;;;;5049228;28;20420;-78
2021/01/20 03:00:56;;;;;;;15.68;11.52;;;;;;;;;;5034208;28;20130;-78
2021/01/20 03:03:24;;;;;;;18.95;11.77;;;;;;;;;;5033646;28;20537;-78
2021/01/20 03:05:50;;;;;;;19.05;11.43;;;;;;;;;;5049479;28;20032;-78
2021/01/20 03:08:17;;;;;;;15.90;11.48;;;;;;;;;;5049280;28;20377;-78
2021/01/20 03:10:43;;;;;;;15.20;11.25;;;;;;;;;;5048996;28;20041;-78
2021/01/20 03:13:09;;;;;;;16.35;11.70;;;;;;;;;;5049216;28;20538;-78
2021/01/20 03:15:37;;;;;;;16.75;11.68;;;;;;;;;;5048869;28;20485;-78
2021/01/20 03:18:04;;;;;;;16.88;11.35;;;;;;;;;;5034480;28;20022;-77
2021/01/20 03:20:30;;;;;;;17.73;11.40;;;;;;;;;;5033852;28;20542;-78
2021/01/20 03:22:56;;;;;;;16.80;12.15;;;;;;;;;;5033951;28;20025;-79
2021/01/20 03:25:22;;;;;;;19.73;12.10;;;;;;;;;;5033938;28;20029;-78
2021/01/20 03:27:49;;;;;;;17.63;11.45;;;;;;;;;;5048788;28;20025;-78
2021/01/20 03:30:15;;;;;;;16.17;10.70;;;;;;;;;;5048811;28;20079;-78
2021/01/20 03:32:41;;;;;;;16.15;10.80;;;;;;;;;;5033423;28;20033;-78
2021/01/20 03:35:08;;;;;;;15.50;11.45;;;;;;;;;;5049032;28;20032;-78
2021/01/20 03:37:34;;;;;;;16.50;11.50;;;;;;;;;;5033512;28;20032;-78
2021/01/20 03:40:00;;;;;;;15.60;11.27;;;;;;;;;;5048858;28;20033;-78
2021/01/20 03:42:26;;;;;;;18.98;11.30;;;;;;;;;;5048735;28;20075;-78
2021/01/20 03:44:52;;;;;;;15.82;11.18;;;;;;;;;;5033367;28;20096;-78
2021/01/20 03:47:18;;;;;;;16.60;11.05;;;;;;;;;;5048625;28;20489;-78
2021/01/20 03:49:44;;;;;;;15.70;10.90;;;;;;;;;;5050344;28;20435;-77
2021/01/20 03:52:10;;;;;;;14.07;10.20;;;;;;;;;;5052280;28;20040;-78
2021/01/20 03:54:36;;;;;;;16.70;10.98;;;;;;;;;;5053255;28;20105;-78
2021/01/20 03:57:03;;;;;;;14.90;10.57;;;;;;;;;;5053149;28;20104;-78
2021/01/20 03:59:30;;;;;;;14.38;10.27;;;;;;;;;;5051646;28;20095;-78
2021/01/20 04:01:57;;;;;;;13.07;9.75;;;;;;;;;;5051704;28;20074;-78
2021/01/20 04:04:23;;;;;;;14.45;9.98;;;;;;;;;;5051524;28;20058;-78
2021/01/20 04:06:49;;;;;;;14.95;10.30;;;;;;;;;;5052738;28;20060;-78
2021/01/20 04:09:15;;;;;;;14.70;10.13;;;;;;;;;;5051867;28;20017;-78
2021/01/20 04:11:41;;;;;;;16.60;10.57;;;;;;;;;;5051318;28;20163;-78
2021/01/20 04:14:08;;;;;;;14.45;10.38;;;;;;;;;;5051397;28;20032;-78
2021/01/20 04:16:34;;;;;;;15.68;10.68;;;;;;;;;;5052596;28;20079;-78
2021/01/20 04:19:00;;;;;;;15.23;10.07;;;;;;;;;;5051013;28;20115;-78
2021/01/20 04:21:26;;;;;;;15.13;10.20;;;;;;;;;;5051102;28;20043;-78
2021/01/20 04:23:52;;;;;;;14.85;10.05;;;;;;;;;;5050938;28;20025;-78
2021/01/20 04:26:18;;;;;;;15.45;11.18;;;;;;;;;;5051334;28;20017;-78
2021/01/20 04:28:44;;;;;;;15.35;9.68;;;;;;;;;;5052379;28;20024;-78
2021/01/20 04:31:10;;;;;;;14.30;9.95;;;;;;;;;;5051133;28;20029;-78
2021/01/20 04:33:36;;;;;;;13.50;9.80;;;;;;;;;;5051197;28;20060;-78
2021/01/20 04:36:02;;;;;;;14.13;9.38;;;;;;;;;;5052264;28;20082;-78
2021/01/20 04:38:28;;;;;;;14.65;10.00;;;;;;;;;;5050956;28;20024;-78
2021/01/20 04:40:55;;;;;;;20.65;10.48;;;;;;;;;;5050785;28;20056;-78
2021/01/20 04:43:21;;;;;;;14.63;9.95;;;;;;;;;;5049731;28;20064;-78
2021/01/20 04:45:48;;;;;;;14.88;10.25;;;;;;;;;;5051991;28;20075;-78
2021/01/20 04:48:16;;;;;;;15.85;10.48;;;;;;;;;;5046357;28;20017;-78
2021/01/20 04:50:43;;;;;;;14.45;10.15;;;;;;;;;;5030661;28;20103;-78
2021/01/20 04:53:13;;;;;;;15.60;9.98;;;;;;;;;;5030859;28;20049;-78
2021/01/20 04:55:41;;;;;;;14.63;9.77;;;;;;;;;;5032008;28;20086;-78
2021/01/20 04:58:09;;;;;;;15.23;9.52;;;;;;;;;;5031951;28;20108;-78
2021/01/20 05:00:36;;;;;;;13.88;9.77;;;;;;;;;;5035604;28;20029;-78
2021/01/20 05:03:05;;;;;;;14.93;10.07;;;;;;;;;;5051703;28;20025;-78
2021/01/20 05:05:31;;;;;;;16.48;9.80;;;;;;;;;;5050307;28;20501;-78
2021/01/20 05:07:57;;;;;;;16.40;10.40;;;;;;;;;;5051607;28;20021;-75
2021/01/20 05:10:23;;;;;;;16.58;9.90;;;;;;;;;;5050212;28;20028;-76
2021/01/20 05:12:49;;;;;;;15.45;10.18;;;;;;;;;;5050325;28;20057;-75
2021/01/20 05:15:15;;;;;;;15.50;9.48;;;;;;;;;;5050170;28;20024;-76
2021/01/20 05:18:01;;;;;;;14.40;9.27;;;;;;;;;;5049383;28;20520;-75
2021/01/20 05:20:31;;;;;;;16.30;9.68;;;;;;;;;;5051514;28;20476;-75
2021/01/20 05:22:58;;;;;;;15.43;10.10;;;;;;;;;;5050146;28;20025;-75
2021/01/20 05:25:28;;;;;;;14.23;9.63;;;;;;;;;;5051059;28;20025;-75
2021/01/20 05:27:54;;;;;;;13.60;9.18;;;;;;;;;;5050106;28;20047;-75
2021/01/20 05:30:21;;;;;;;14.15;9.43;;;;;;;;;;5051346;28;20060;-77
2021/01/20 05:32:57;;;;;;;13.90;10.07;;;;;;;;;;5050029;28;20036;-78
2021/01/20 05:35:23;;;;;;;13.60;9.60;;;;;;;;;;5048936;28;20108;-78
2021/01/20 05:37:49;;;;;;;12.85;9.07;;;;;;;;;;5050002;28;20106;-78
2021/01/20 05:40:20;;;;;;;18.33;10.48;;;;;;;;;;5049901;28;20021;-78
2021/01/20 05:42:49;;;;;;;12.95;9.02;;;;;;;;;;5051228;28;20048;-78
2021/01/20 05:45:15;;;;;;;13.38;9.75;;;;;;;;;;5049455;28;20053;-78
2021/01/20 05:48:00;;;;;;;13.93;9.63;;;;;;;;;;5050314;28;20096;-78
2021/01/20 05:50:26;;;;;;;13.10;8.75;;;;;;;;;;5029997;28;20444;-77
2021/01/20 05:53:07;;;;;;;14.52;9.68;;;;;;;;;;5045746;28;20029;-78
2021/01/20 05:55:34;;;;;;;16.20;10.20;;;;;;;;;;5049721;28;20495;-78
2021/01/20 05:58:01;;;;;;;13.27;9.40;;;;;;;;;;5049765;28;20079;-78
2021/01/20 06:00:27;;;;;;;13.15;9.20;;;;;;;;;;5051124;28;20022;-78
2021/01/20 06:02:57;;;;;;;14.13;9.75;;;;;;;;;;5051076;28;20048;-78
2021/01/20 06:05:24;;;;;;;14.60;9.50;;;;;;;;;;5049579;28;20025;-78
2021/01/20 06:07:51;;;;;;;14.18;9.25;;;;;;;;;;5049618;28;20021;-78
2021/01/20 06:10:17;;;;;;;12.35;9.27;;;;;;;;;;5050084;28;20103;-78
2021/01/20 06:12:43;;;;;;;17.10;10.50;;;;;;;;;;5049547;28;20099;-78
2021/01/20 06:15:10;;;;;;;14.15;9.68;;;;;;;;;;5050907;28;20021;-78
2021/01/20 06:17:37;;;;;;;15.00;9.70;;;;;;;;;;5050990;28;20391;-78
2021/01/20 06:20:05;;;;;;;14.82;10.07;;;;;;;;;;5049485;28;20055;-78
2021/01/20 06:22:31;;;;;;;14.50;10.18;;;;;;;;;;5049359;28;20028;-78
2021/01/20 06:25:16;;;;;;;13.23;9.68;;;;;;;;;;5046005;28;20479;-78
2021/01/20 06:27:46;;;;;;;15.40;10.00;;;;;;;;;;5029320;28;20063;-78
2021/01/20 06:30:12;;;;;;;14.95;10.23;;;;;;;;;;5029362;28;20025;-78
2021/01/20 06:32:42;;;;;;;15.63;10.35;;;;;;;;;;5029333;28;20124;-78
2021/01/20 06:35:08;;;;;;;15.48;10.60;;;;;;;;;;5029296;28;20029;-78
2021/01/20 06:37:40;;;;;;;13.75;10.02;;;;;;;;;;5032570;28;20082;-78
2021/01/20 06:40:27;;;;;;;17.77;10.23;;;;;;;;;;5034303;28;20426;-78
2021/01/20 06:42:54;;;;;;;13.88;9.38;;;;;;;;;;5026485;28;20107;-78
2021/01/20 06:45:22;;;;;;;14.30;9.68;;;;;;;;;;5032720;28;20520;-78
2021/01/20 06:48:00;;;;;;;14.75;9.27;;;;;;;;;;5035573;28;20515;-78
2021/01/20 06:50:30;;;;;;;16.05;10.52;;;;;;;;;;5052819;28;20025;-78
2021/01/20 06:53:02;;;;;;;15.48;10.60;;;;;;;;;;5053941;28;20445;-78
2021/01/20 06:55:32;;;;;;;13.57;10.18;;;;;;;;;;5052697;28;20032;-78
2021/01/20 06:58:17;;;;;;;14.82;10.38;;;;;;;;;;5052655;28;20021;-78
2021/01/20 07:00:44;;;;;;;18.45;11.52;;;;;;;;;;5052935;28;20025;-78
2021/01/20 07:03:10;;;;;;;14.70;9.77;;;;;;;;;;5052448;28;20032;-74
2021/01/20 07:05:36;;;;;;;18.17;10.20;;;;;;;;;;5051988;28;20544;-78
2021/01/20 07:08:03;;;;;;;14.95;9.85;;;;;;;;;;5053851;28;20013;-78
2021/01/20 07:10:52;;;;;;;14.48;9.90;;;;;;;;;;5053666;28;20121;-78
2021/01/20 07:13:18;;;;;;;17.48;9.82;;;;;;;;;;5052234;28;20025;-79
2021/01/20 07:15:49;;;;;;;14.57;9.10;;;;;;;;;;5052172;28;20085;-78
2021/01/20 07:18:16;;;;;;;13.55;9.98;;;;;;;;;;5034376;28;20032;-79
2021/01/20 07:20:42;;;;;;;15.45;9.77;;;;;;;;;;5032087;28;20066;-79
2021/01/20 07:23:08;;;;;;;17.25;10.80;;;;;;;;;;5032367;28;20064;-79
2021/01/20 07:25:35;;;;;;;15.27;9.77;;;;;;;;;;5048826;28;20033;-78
2021/01/20 07:28:01;;;;;;;18.73;9.60;;;;;;;;;;5033475;28;20782;-79
2021/01/20 07:30:28;;;;;;;17.98;9.75;;;;;;;;;;5032238;28;20461;-77
2021/01/20 07:32:54;;;;;;;13.90;9.77;;;;;;;;;;5033138;28;20045;-77
2021/01/20 07:35:21;;;;;;;17.83;9.70;;;;;;;;;;5052407;28;20027;-76
2021/01/20 07:37:58;;;;;;;14.30;9.10;;;;;;;;;;5051876;28;20112;-77
2021/01/20 07:40:31;;;;;;;12.70;9.38;;;;;;;;;;5051877;28;20053;-77
2021/01/20 07:42:57;;;;;;;12.85;9.15;;;;;;;;;;5052174;28;20559;-77
2021/01/20 07:45:39;;;;;;;17.45;9.50;;;;;;;;;;5052773;28;20067;-77
2021/01/20 07:48:06;;;;;;;13.02;9.25;;;;;;;;;;5045944;28;20025;-77
2021/01/20 07:50:39;;;;;;;12.57;8.10;;;;;;;;;;5032144;28;20036;-77
2021/01/20 07:53:06;;;;;;;12.15;8.30;;;;;;;;;;5031535;28;20052;-77
2021/01/20 07:55:33;;;;;;;14.45;8.55;;;;;;;;;;5032945;28;20025;-77
2021/01/20 07:58:02;;;;;;;14.27;8.52;;;;;;;;;;5031639;28;20041;-77
2021/01/20 08:00:28;;;;;;;12.70;8.15;;;;;;;;;;5031630;28;20021;-77
2021/01/20 08:02:56;;;;;;;12.23;8.57;;;;;;;;;;5046993;28;20148;-77
2021/01/20 08:05:30;;;;;;;13.02;8.02;;;;;;;;;;5050825;28;20563;-77
2021/01/20 08:08:04;;;;;;;20.60;8.52;;;;;;;;;;5042935;28;20044;-75
2021/01/20 08:10:30;;;;;;;16.95;6.85;;;;;;;;;;5066955;28;20033;-77
2021/01/20 08:12:56;;;;;;;19.10;8.85;;;;;;;;;;5036855;28;20026;-77
2021/01/20 08:15:22;;;;;;;14.98;8.88;;;;;;;;;;5031288;28;20031;-77
2021/01/20 08:17:48;;;;;;;17.15;8.48;;;;;;;;;;5049473;28;20078;-77
2021/01/20 08:20:15;;;;;;;19.55;8.63;;;;;;;;;;5052339;28;20468;-71
2021/01/20 08:22:45;;;;;;;14.93;8.55;;;;;;;;;;5052588;28;20055;-73
2021/01/20 08:25:18;;;;;;;12.00;8.07;;;;;;;;;;5052480;28;20124;-75
2021/01/20 08:27:45;;;;;;;13.40;8.48;;;;;;;;;;5051145;28;20086;-74
2021/01/20 08:30:14;;;;;;;13.18;7.85;;;;;;;;;;5035482;28;20025;-74
2021/01/20 08:32:53;;;;;;;13.38;7.68;;;;;;;;;;5032271;28;20038;-73
2021/01/20 08:35:25;;;;;;;11.55;7.90;;;;;;;;;;5031247;28;20028;-76
2021/01/20 08:37:51;;;;;;;14.32;8.95;;;;;;;;;;5032337;28;20029;-77
2021/01/20 08:40:17;;;;;;;16.35;8.50;;;;;;;;;;5032341;28;20103;-76
2021/01/20 08:42:44;;;;;;;13.55;8.10;;;;;;;;;;5032042;28;20018;-76
2021/01/20 08:45:10;;;;;;;14.25;7.90;;;;;;;;;;5032115;28;20057;-75
2021/01/20 08:47:46;;;;;;;10.93;7.70;;;;;;;;;;5032205;28;20013;-77
2021/01/20 08:50:13;;;;;;;12.40;8.05;;;;;;;;;;5038068;28;20115;-81
2021/01/20 08:52:43;;;;;;;12.43;8.05;;;;;;;;;;5051764;28;20039;-79
2021/01/20 08:55:10;;;;;;;13.15;8.65;;;;;;;;;;5050860;28;20020;-77
2021/01/20 08:57:36;;;;;;;11.77;8.43;;;;;;;;;;5050541;28;20021;-78
2021/01/20 09:00:03;;;;;;;12.02;6.90;;;;;;;;;;5050038;28;20033;-78
2021/01/20 09:02:29;;;;;;;17.58;8.40;;;;;;;;;;5051888;28;20032;-75
2021/01/20 09:04:55;;;;;;;10.57;7.18;;;;;;;;;;5048089;28;20071;-77
2021/01/20 09:07:21;;;;;;;10.93;7.80;;;;;;;;;;5031931;28;20040;-74
2021/01/20 09:09:47;;;;;;;12.25;7.53;;;;;;;;;;5031947;28;20044;-70
2021/01/20 09:12:13;;;;;;;10.32;7.68;;;;;;;;;;5031866;28;20456;-75
2021/01/20 09:14:40;;;;;;;12.40;8.43;;;;;;;;;;5031596;28;20362;-71
2021/01/20 09:17:09;;;;;;;11.85;8.45;;;;;;;;;;5031674;28;20029;-73
2021/01/20 09:19:35;;;;;;;9.73;6.75;;;;;;;;;;5030328;28;20492;-75
2021/01/20 09:22:01;;;;;;;13.40;7.55;;;;;;;;;;5031664;28;20033;-74
2021/01/20 09:24:27;;;;;;;10.52;6.65;;;;;;;;;;5031597;28;20041;-75
2021/01/20 09:26:53;;;;;;;10.85;6.70;;;;;;;;;;5043998;28;20032;-75
2021/01/20 09:29:19;;;;;;;9.35;6.53;;;;;;;;;;5051084;28;20499;-73
2021/01/20 09:31:45;;;;;;;9.07;5.80;;;;;;;;;;5050911;28;20087;-72
2021/01/20 09:34:11;;;;;;;9.57;6.70;;;;;;;;;;5051282;28;20527;-70
2021/01/20 09:36:38;;;;;;;9.45;6.25;;;;;;;;;;5051244;28;20063;-76
2021/01/20 09:39:04;;;;;;;9.65;6.43;;;;;;;;;;5051049;28;20075;-71
2021/01/20 09:41:30;;;;;;;10.48;5.82;;;;;;;;;;5051296;28;20167;-72
2021/01/20 09:43:56;;;;;;;8.85;5.45;;;;;;;;;;5050997;28;20454;-76
2021/01/20 09:46:22;;;;;;;10.98;5.28;;;;;;;;;;5051061;28;20376;-75
2021/01/20 09:48:48;;;;;;;10.68;5.47;;;;;;;;;;5049663;28;20484;-77
2021/01/20 09:51:14;;;;;;;9.80;4.63;;;;;;;;;;5049760;28;20036;-74
2021/01/20 09:53:41;;;;;;;9.05;4.70;;;;;;;;;;5049696;28;20022;-78
2021/01/20 09:56:07;;;;;;;6.00;3.90;;;;;;;;;;5049813;28;20021;-78
2021/01/20 09:58:39;;;;;;;6.35;4.40;;;;;;;;;;5049721;28;20112;-73
2021/01/20 10:01:06;;;;;;;12.93;4.78;;;;;;;;;;5050890;28;20048;-74
2021/01/20 10:03:32;;;;;;;7.40;4.60;;;;;;;;;;5051211;28;20056;-70
2021/01/20 10:05:58;;;;;;;6.20;4.00;;;;;;;;;;5040366;28;20025;-71
2021/01/20 10:08:24;;;;;;;8.60;4.00;;;;;;;;;;5031304;28;20036;-70
2021/01/20 10:10:50;;;;;;;6.55;4.20;;;;;;;;;;5031038;28;20052;-73
2021/01/20 10:13:16;;;;;;;6.68;3.67;;;;;;;;;;5034006;28;20041;-70
2021/01/20 10:15:42;;;;;;;5.38;3.40;;;;;;;;;;5033612;28;20022;-71
2021/01/20 10:18:08;;;;;;;6.03;3.70;;;;;;;;;;5034945;28;20022;-70
2021/01/20 10:20:35;;;;;;;5.85;3.63;;;;;;;;;;5034808;28;20018;-72
2021/01/20 10:23:01;;;;;;;6.18;3.72;;;;;;;;;;5033936;28;20021;-68
2021/01/20 10:25:32;;;;;;;6.85;3.33;;;;;;;;;;5040357;28;20026;-79
2021/01/20 10:27:59;;;;;;;6.70;3.30;;;;;;;;;;5034795;28;20056;-79
2021/01/20 10:30:26;;;;;;;6.43;3.75;;;;;;;;;;5036209;28;20013;-77
2021/01/20 10:32:52;;;;;;;6.90;3.33;;;;;;;;;;5034600;28;20037;-79
2021/01/20 10:35:19;;;;;;;4.95;3.08;;;;;;;;;;5035562;28;20029;-78
2021/01/20 10:37:46;;;;;;;5.63;3.20;;;;;;;;;;5042756;28;20013;-77
2021/01/20 10:40:13;;;;;;;4.85;3.08;;;;;;;;;;5053329;28;20048;-77
2021/01/20 10:42:39;;;;;;;4.85;3.22;;;;;;;;;;5054317;28;20025;-78
2021/01/20 10:45:05;;;;;;;4.95;2.80;;;;;;;;;;5052698;28;20060;-77
2021/01/20 10:47:31;;;;;;;5.30;2.95;;;;;;;;;;5054086;28;20075;-78
2021/01/20 10:49:58;;;;;;;6.47;2.92;;;;;;;;;;5054171;28;20025;-77
2021/01/20 10:52:24;;;;;;;10.70;2.97;;;;;;;;;;5054245;28;20029;-79
2021/01/20 10:54:50;;;;;;;5.50;2.83;;;;;;;;;;5054359;28;20021;-80
2021/01/20 10:57:16;;;;;;;4.88;2.90;;;;;;;;;;5053006;28;20067;-80
2021/01/20 10:59:42;;;;;;;4.32;2.50;;;;;;;;;;5052831;28;20024;-77
2021/01/20 11:02:11;;;;;;;4.20;2.40;;;;;;;;;;5052856;28;20025;-80
2021/01/20 11:04:38;;;;;;;4.78;2.85;;;;;;;;;;5053567;28;20025;-81
2021/01/20 11:07:05;;;;;;;4.25;2.47;;;;;;;;;;5054206;28;20095;-80
2021/01/20 11:09:31;;;;;;;5.10;3.03;;;;;;;;;;5052360;28;20452;-78
2021/01/20 11:11:57;;;;;;;6.53;3.38;;;;;;;;;;5052406;28;20033;-78
2021/01/20 11:14:24;;;;;;;5.93;2.70;;;;;;;;;;5051796;28;20025;-76
2021/01/20 11:16:54;;;;;;;4.50;2.45;;;;;;;;;;5052160;28;20476;-77
2021/01/20 11:19:20;;;;;;;4.40;2.47;;;;;;;;;;5053588;28;20617;-77
2021/01/20 11:21:46;;;;;;;4.85;2.50;;;;;;;;;;5053628;28;20040;-77
2021/01/20 11:24:17;;;;;;;6.88;2.40;;;;;;;;;;5053041;28;20032;-77
2021/01/20 11:26:43;;;;;;;6.70;2.88;;;;;;;;;;5053030;28;20021;-77
2021/01/20 11:29:09;;;;;;;5.22;2.45;;;;;;;;;;5051861;28;20033;-77
2021/01/20 11:31:35;;;;;;;5.88;2.35;;;;;;;;;;5053410;28;20637;-77
2021/01/20 11:34:01;;;;;;;8.02;2.17;;;;;;;;;;5053392;28;20028;-77
2021/01/20 11:36:28;;;;;;;4.03;2.13;;;;;;;;;;5053469;28;20109;-77
2021/01/20 11:38:54;;;;;;;5.28;2.47;;;;;;;;;;5052855;28;20071;-77
2021/01/20 11:41:20;;;;;;;4.30;2.50;;;;;;;;;;5053423;28;20025;-74
2021/01/20 11:43:47;;;;;;;5.45;2.30;;;;;;;;;;5053267;28;20056;-73
2021/01/20 11:46:14;;;;;;;5.88;2.15;;;;;;;;;;5052378;28;20037;-71
2021/01/20 11:48:40;;;;;;;5.93;2.13;;;;;;;;;;5053735;28;20056;-76
2021/01/20 11:51:06;;;;;;;6.72;2.47;;;;;;;;;;5052067;28;20033;-74
2021/01/20 11:53:33;;;;;;;5.60;1.90;;;;;;;;;;5052908;28;20110;-71
2021/01/20 11:55:59;;;;;;;3.92;2.00;;;;;;;;;;5053189;28;20017;-70
2021/01/20 11:58:25;;;;;;;5.97;2.30;;;;;;;;;;5051903;28;20029;-71
2021/01/20 12:00:51;;;;;;;3.42;1.83;;;;;;;;;;5053153;28;20017;-70
2021/01/20 12:03:17;;;;;;;3.63;1.90;;;;;;;;;;5053017;28;20096;-73
2021/01/20 12:05:43;;;;;;;6.55;2.00;;;;;;;;;;5051669;28;20469;-74
2021/01/20 12:08:09;;;;;;;5.43;2.30;;;;;;;;;;5051775;28;20040;-74
2021/01/20 12:10:35;;;;;;;4.40;2.13;;;;;;;;;;5051807;28;20028;-73
2021/01/20 12:13:01;;;;;;;5.18;2.22;;;;;;;;;;5052739;28;20033;-72
2021/01/20 12:15:27;;;;;;;6.35;1.90;;;;;;;;;;5051505;28;20029;-70
2021/01/20 12:17:53;;;;;;;4.30;2.10;;;;;;;;;;5052511;28;20104;-72
2021/01/20 12:20:20;;;;;;;5.65;2.25;;;;;;;;;;5051397;28;20021;-80
2021/01/20 12:22:46;;;;;;;3.60;1.88;;;;;;;;;;5051262;28;20036;-72
2021/01/20 12:25:12;;;;;;;9.88;2.78;;;;;;;;;;5051868;28;20033;-78
2021/01/20 12:27:39;;;;;;;6.07;1.80;;;;;;;;;;5051370;28;20017;-76
2021/01/20 12:30:06;;;;;;;12.50;2.22;;;;;;;;;;5051601;28;20029;-76
2021/01/20 12:32:32;;;;;;;10.38;2.03;;;;;;;;;;5050390;28;20400;-78
2021/01/20 12:34:58;;;;;;;6.07;1.95;;;;;;;;;;5051696;28;20059;-76
2021/01/20 12:37:24;;;;;;;7.15;2.20;;;;;;;;;;5050728;28;20031;-76
2021/01/20 12:39:50;;;;;;;9.35;1.95;;;;;;;;;;5050931;28;20040;-75
2021/01/20 12:42:16;;;;;;;5.30;2.28;;;;;;;;;;5050793;28;20593;-76
2021/01/20 12:44:43;;;;;;;15.85;2.45;;;;;;;;;;5050686;28;20044;-75
2021/01/20 12:47:09;;;;;;;12.65;2.70;;;;;;;;;;5052390;28;20036;-76
2021/01/20 12:49:35;;;;;;;14.32;2.75;;;;;;;;;;5051804;28;20013;-76
2021/01/20 12:52:01;;;;;;;12.23;2.47;;;;;;;;;;5050274;28;20091;-74
2021/01/20 12:54:27;;;;;;;11.80;2.42;;;;;;;;;;5050491;28;20021;-76
2021/01/20 12:56:53;;;;;;;11.25;2.38;;;;;;;;;;5051780;28;20048;-73
2021/01/20 12:59:20;;;;;;;7.05;2.30;;;;;;;;;;5051937;28;20096;-69
2021/01/20 13:01:46;;;;;;;9.60;2.28;;;;;;;;;;5051828;28;20399;-75
2021/01/20 13:04:12;;;;;;;6.32;2.20;;;;;;;;;;5050173;28;20021;-76
2021/01/20 13:06:38;;;;;;;8.32;2.65;;;;;;;;;;5051527;28;20036;-76
2021/01/20 13:09:04;;;;;;;12.60;2.30;;;;;;;;;;5051685;28;20032;-69
2021/01/20 13:11:30;;;;;;;7.20;1.88;;;;;;;;;;5051228;28;20120;-69
2021/01/20 13:13:56;;;;;;;9.65;2.15;;;;;;;;;;5051655;28;20091;-68
2021/01/20 13:16:22;;;;;;;5.43;2.10;;;;;;;;;;5051664;28;20472;-67
2021/01/20 13:18:48;;;;;;;6.80;2.15;;;;;;;;;;5051730;28;20048;-70
2021/01/20 13:21:15;;;;;;;7.38;2.17;;;;;;;;;;5050341;28;20044;-74
2021/01/20 13:23:41;;;;;;;5.97;2.53;;;;;;;;;;5051357;28;20112;-73
2021/01/20 13:26:07;;;;;;;6.35;2.30;;;;;;;;;;5051621;28;20022;-70
2021/01/20 13:28:33;;;;;;;7.38;2.47;;;;;;;;;;5049549;28;20036;-74
2021/01/20 13:30:59;;;;;;;6.95;2.45;;;;;;;;;;5050718;28;20021;-74
2021/01/20 13:33:25;;;;;;;6.07;2.17;;;;;;;;;;5048508;28;20030;-74
2021/01/20 13:35:52;;;;;;;7.80;2.72;;;;;;;;;;5049399;28;20028;-73
2021/01/20 13:38:18;;;;;;;7.10;3.15;;;;;;;;;;5046329;28;20032;-71
2021/01/20 13:40:44;;;;;;;11.27;2.65;;;;;;;;;;5050558;28;20028;-77
2021/01/20 13:43:10;;;;;;;7.65;2.67;;;;;;;;;;5046983;28;20039;-76
2021/01/20 13:45:36;;;;;;;6.65;3.22;;;;;;;;;;5047013;28;20079;-75
2021/01/20 13:48:02;;;;;;;8.52;3.10;;;;;;;;;;5053616;28;20408;-73
2021/01/20 13:50:28;;;;;;;6.90;3.22;;;;;;;;;;5042638;28;20076;-72
2021/01/20 13:52:54;;;;;;;7.25;2.95;;;;;;;;;;5034264;28;20037;-77
2021/01/20 13:55:20;;;;;;;6.13;3.30;;;;;;;;;;5035620;28;20063;-70
2021/01/20 13:57:47;;;;;;;7.07;3.50;;;;;;;;;;5035176;28;20017;-76
2021/01/20 14:00:13;;;;;;;6.40;2.78;;;;;;;;;;5037002;28;20014;-73
2021/01/20 14:02:39;;;;;;;8.73;3.13;;;;;;;;;;5055081;28;20017;-69
2021/01/20 14:05:06;;;;;;;7.20;3.22;;;;;;;;;;5055378;28;20052;-75
2021/01/20 14:07:32;;;;;;;7.72;3.10;;;;;;;;;;5055179;28;20388;-74
2021/01/20 14:09:58;;;;;;;7.80;3.08;;;;;;;;;;5055161;28;20400;-75
2021/01/20 14:12:24;;;;;;;8.93;3.63;;;;;;;;;;5054857;28;20060;-74
2021/01/20 14:14:50;;;;;;;6.85;3.28;;;;;;;;;;5054750;28;20055;-71
2021/01/20 14:17:16;;;;;;;7.85;3.60;;;;;;;;;;5054929;28;20021;-73
2021/01/20 14:19:44;;;;;;;9.77;3.50;;;;;;;;;;5055048;28;20017;-70
2021/01/20 14:22:10;;;;;;;6.38;3.30;;;;;;;;;;5053575;28;20029;-72
2021/01/20 14:24:36;;;;;;;5.20;2.90;;;;;;;;;;5043300;28;20041;-72
2021/01/20 14:27:03;;;;;;;10.02;3.30;;;;;;;;;;5047627;28;20051;-74
2021/01/20 14:29:29;;;;;;;10.38;3.63;;;;;;;;;;5053268;28;20024;-73